sensor_id;sensor_type;location;lat;lon;timestamp;pressure;altitude;pressure_sealevel;temperature;humidity
79123;BME280;68526;44.600;26.032;2023-08-06T00:00:01;99238.31;;;23.31;69.27
79123;BME280;68526;44.600;26.032;2023-08-06T00:00:16;99239.50;;;23.30;69.23
79123;BME280;68526;44.600;26.032;2023-08-06T00:00:32;99243.97;;;23.27;69.26
79123;BME280;68526;44.600;26.032;2023-08-06T00:00:49;99239.50;;;23.30;69.47
79123;BME280;68526;44.600;26.032;2023-08-06T00:01:05;99244.75;;;23.28;69.34
79123;BME280;68526;44.600;26.032;2023-08-06T00:01:21;99243.97;;;23.27;69.35
79123;BME280;68526;44.600;26.032;2023-08-06T00:01:38;99246.00;;;23.27;69.63
79123;BME280;68526;44.600;26.032;2023-08-06T00:01:54;99253.59;;;23.26;69.50
79123;BME280;68526;44.600;26.032;2023-08-06T00:02:09;99250.34;;;23.28;69.55
79123;BME280;68526;44.600;26.032;2023-08-06T00:02:26;99252.81;;;23.26;69.76
79123;BME280;68526;44.600;26.032;2023-08-06T00:02:42;99246.84;;;23.24;69.59
79123;BME280;68526;44.600;26.032;2023-08-06T00:02:58;99250.84;;;23.23;69.68
79123;BME280;68526;44.600;26.032;2023-08-06T00:03:13;99249.28;;;23.22;69.79
79123;BME280;68526;44.600;26.032;2023-08-06T00:03:29;99255.31;;;23.20;69.83
79123;BME280;68526;44.600;26.032;2023-08-06T00:03:45;99245.78;;;23.17;70.09
79123;BME280;68526;44.600;26.032;2023-08-06T00:04:01;99254.16;;;23.17;70.03
79123;BME280;68526;44.600;26.032;2023-08-06T00:04:17;99251.81;;;23.16;70.12
79123;BME280;68526;44.600;26.032;2023-08-06T00:04:34;99254.94;;;23.18;70.31
79123;BME280;68526;44.600;26.032;2023-08-06T00:04:50;99249.00;;;23.16;70.22
79123;BME280;68526;44.600;26.032;2023-08-06T00:05:07;99250.66;;;23.13;70.50
79123;BME280;68526;44.600;26.032;2023-08-06T00:05:22;99255.03;;;23.14;70.31
79123;BME280;68526;44.600;26.032;2023-08-06T00:05:41;99246.22;;;23.16;70.26
79123;BME280;68526;44.600;26.032;2023-08-06T00:05:58;99250.56;;;23.17;70.12
79123;BME280;68526;44.600;26.032;2023-08-06T00:06:15;99250.22;;;23.15;70.18
79123;BME280;68526;44.600;26.032;2023-08-06T00:06:31;99242.28;;;23.13;70.49
79123;BME280;68526;44.600;26.032;2023-08-06T00:06:47;99245.09;;;23.13;70.51
79123;BME280;68526;44.600;26.032;2023-08-06T00:07:03;99247.88;;;23.13;70.48
79123;BME280;68526;44.600;26.032;2023-08-06T00:07:19;99245.50;;;23.12;70.51
79123;BME280;68526;44.600;26.032;2023-08-06T00:07:35;99247.50;;;23.11;70.48
79123;BME280;68526;44.600;26.032;2023-08-06T00:07:51;99241.56;;;23.09;70.52
79123;BME280;68526;44.600;26.032;2023-08-06T00:08:07;99245.59;;;23.08;70.43
79123;BME280;68526;44.600;26.032;2023-08-06T00:08:23;99235.97;;;23.09;70.72
79123;BME280;68526;44.600;26.032;2023-08-06T00:08:39;99236.78;;;23.10;70.46
79123;BME280;68526;44.600;26.032;2023-08-06T00:08:55;99248.72;;;23.10;70.62
79123;BME280;68526;44.600;26.032;2023-08-06T00:09:11;99242.41;;;23.06;70.77
79123;BME280;68526;44.600;26.032;2023-08-06T00:09:26;99236.03;;;23.06;70.83
79123;BME280;68526;44.600;26.032;2023-08-06T00:09:42;99240.84;;;23.05;70.70
79123;BME280;68526;44.600;26.032;2023-08-06T00:09:58;99249.66;;;23.04;70.95
79123;BME280;68526;44.600;26.032;2023-08-06T00:10:15;99239.28;;;23.04;70.86
79123;BME280;68526;44.600;26.032;2023-08-06T00:10:31;99241.34;;;23.00;71.10
79123;BME280;68526;44.600;26.032;2023-08-06T00:10:47;99237.00;;;22.99;71.01
79123;BME280;68526;44.600;26.032;2023-08-06T00:11:04;99241.00;;;22.98;71.00
79123;BME280;68526;44.600;26.032;2023-08-06T00:11:19;99241.00;;;22.98;71.17
79123;BME280;68526;44.600;26.032;2023-08-06T00:11:35;99241.00;;;22.98;71.09
79123;BME280;68526;44.600;26.032;2023-08-06T00:11:52;99241.44;;;22.97;71.21
79123;BME280;68526;44.600;26.032;2023-08-06T00:12:08;99237.44;;;22.98;71.31
79123;BME280;68526;44.600;26.032;2023-08-06T00:12:23;99245.03;;;22.97;71.28
79123;BME280;68526;44.600;26.032;2023-08-06T00:12:39;99234.63;;;22.98;71.16
79123;BME280;68526;44.600;26.032;2023-08-06T00:12:55;99236.19;;;22.99;71.30
79123;BME280;68526;44.600;26.032;2023-08-06T00:13:11;99236.19;;;22.99;71.31
79123;BME280;68526;44.600;26.032;2023-08-06T00:13:27;99234.19;;;22.99;71.12
79123;BME280;68526;44.600;26.032;2023-08-06T00:13:43;99231.06;;;22.97;71.30
79123;BME280;68526;44.600;26.032;2023-08-06T00:13:59;99235.41;;;22.98;71.22
79123;BME280;68526;44.600;26.032;2023-08-06T00:14:15;99233.41;;;22.99;71.33
79123;BME280;68526;44.600;26.032;2023-08-06T00:14:32;99234.97;;;23.00;71.32
79123;BME280;68526;44.600;26.032;2023-08-06T00:14:50;99230.63;;;22.99;71.37
79123;BME280;68526;44.600;26.032;2023-08-06T00:15:06;99239.78;;;22.99;71.24
79123;BME280;68526;44.600;26.032;2023-08-06T00:15:22;99232.63;;;22.98;71.42
79123;BME280;68526;44.600;26.032;2023-08-06T00:15:39;99233.84;;;22.97;71.62
79123;BME280;68526;44.600;26.032;2023-08-06T00:15:55;99235.41;;;22.98;71.51
79123;BME280;68526;44.600;26.032;2023-08-06T00:16:11;99242.22;;;22.97;71.49
79123;BME280;68526;44.600;26.032;2023-08-06T00:16:27;99228.69;;;22.96;71.66
79123;BME280;68526;44.600;26.032;2023-08-06T00:16:43;99229.91;;;22.95;71.64
79123;BME280;68526;44.600;26.032;2023-08-06T00:16:59;99233.91;;;22.93;71.63
79123;BME280;68526;44.600;26.032;2023-08-06T00:17:15;99233.13;;;22.93;71.48
79123;BME280;68526;44.600;26.032;2023-08-06T00:17:31;99238.38;;;22.91;71.90
79123;BME280;68526;44.600;26.032;2023-08-06T00:17:48;99235.13;;;22.92;71.79
79123;BME280;68526;44.600;26.032;2023-08-06T00:18:04;99228.75;;;22.92;71.58
79123;BME280;68526;44.600;26.032;2023-08-06T00:18:20;99227.97;;;22.91;71.67
79123;BME280;68526;44.600;26.032;2023-08-06T00:18:35;99230.44;;;22.89;71.90
79123;BME280;68526;44.600;26.032;2023-08-06T00:18:51;99224.84;;;22.89;71.78
79123;BME280;68526;44.600;26.032;2023-08-06T00:19:07;99235.22;;;22.89;72.00
79123;BME280;68526;44.600;26.032;2023-08-06T00:19:23;99224.84;;;22.89;71.86
79123;BME280;68526;44.600;26.032;2023-08-06T00:19:38;99226.84;;;22.89;72.00
79123;BME280;68526;44.600;26.032;2023-08-06T00:19:54;99226.88;;;22.85;72.08
79123;BME280;68526;44.600;26.032;2023-08-06T00:20:11;99230.47;;;22.86;72.26
79123;BME280;68526;44.600;26.032;2023-08-06T00:20:27;99226.03;;;22.88;71.96
79123;BME280;68526;44.600;26.032;2023-08-06T00:20:43;99232.06;;;22.87;72.08
79123;BME280;68526;44.600;26.032;2023-08-06T00:21:00;99228.81;;;22.88;72.19
79123;BME280;68526;44.600;26.032;2023-08-06T00:21:16;99224.88;;;22.86;72.17
79123;BME280;68526;44.600;26.032;2023-08-06T00:21:31;99222.09;;;22.86;72.11
79123;BME280;68526;44.600;26.032;2023-08-06T00:21:47;99226.47;;;22.87;72.00
79123;BME280;68526;44.600;26.032;2023-08-06T00:22:04;99218.09;;;22.87;72.17
79123;BME280;68526;44.600;26.032;2023-08-06T00:22:20;99224.09;;;22.85;72.34
79123;BME280;68526;44.600;26.032;2023-08-06T00:22:37;99217.72;;;22.85;72.46
79123;BME280;68526;44.600;26.032;2023-08-06T00:22:53;99230.91;;;22.84;72.60
79123;BME280;68526;44.600;26.032;2023-08-06T00:23:09;99224.53;;;22.84;72.44
79123;BME280;68526;44.600;26.032;2023-08-06T00:23:25;99221.34;;;22.82;72.53
79123;BME280;68526;44.600;26.032;2023-08-06T00:23:41;99226.16;;;22.81;72.69
79123;BME280;68526;44.600;26.032;2023-08-06T00:23:57;99224.94;;;22.82;72.67
79123;BME280;68526;44.600;26.032;2023-08-06T00:24:13;99222.13;;;22.82;72.52
79123;BME280;68526;44.600;26.032;2023-08-06T00:24:29;99221.78;;;22.80;72.76
79123;BME280;68526;44.600;26.032;2023-08-06T00:24:45;99226.94;;;22.82;72.71
79123;BME280;68526;44.600;26.032;2023-08-06T00:25:01;99212.19;;;22.81;72.70
79123;BME280;68526;44.600;26.032;2023-08-06T00:25:17;99217.38;;;22.83;72.68
79123;BME280;68526;44.600;26.032;2023-08-06T00:25:33;99221.34;;;22.82;72.74
79123;BME280;68526;44.600;26.032;2023-08-06T00:25:49;99228.59;;;22.79;72.81
79123;BME280;68526;44.600;26.032;2023-08-06T00:26:06;99227.44;;;22.77;72.82
79123;BME280;68526;44.600;26.032;2023-08-06T00:26:21;99227.81;;;22.79;72.85
79123;BME280;68526;44.600;26.032;2023-08-06T00:26:37;99225.81;;;22.79;72.92
79123;BME280;68526;44.600;26.032;2023-08-06T00:26:53;99225.38;;;22.81;72.83
79123;BME280;68526;44.600;26.032;2023-08-06T00:27:09;99225.81;;;22.79;72.87
79123;BME280;68526;44.600;26.032;2023-08-06T00:27:25;99224.25;;;22.78;72.92
79123;BME280;68526;44.600;26.032;2023-08-06T00:27:41;99228.16;;;22.81;72.77
79123;BME280;68526;44.600;26.032;2023-08-06T00:27:57;99223.38;;;22.81;72.98
79123;BME280;68526;44.600;26.032;2023-08-06T00:28:13;99223.81;;;22.80;72.74
79123;BME280;68526;44.600;26.032;2023-08-06T00:28:29;99227.03;;;22.78;72.98
79123;BME280;68526;44.600;26.032;2023-08-06T00:28:45;99233.03;;;22.77;73.03
79123;BME280;68526;44.600;26.032;2023-08-06T00:29:00;99229.44;;;22.76;73.30
79123;BME280;68526;44.600;26.032;2023-08-06T00:29:17;99229.03;;;22.78;73.11
79123;BME280;68526;44.600;26.032;2023-08-06T00:29:32;99222.72;;;22.74;73.21
79123;BME280;68526;44.600;26.032;2023-08-06T00:29:49;99230.31;;;22.73;73.04
79123;BME280;68526;44.600;26.032;2023-08-06T00:30:06;99230.75;;;22.72;73.32
79123;BME280;68526;44.600;26.032;2023-08-06T00:30:22;99222.72;;;22.74;73.23
79123;BME280;68526;44.600;26.032;2023-08-06T00:30:38;99217.16;;;22.74;73.32
79123;BME280;68526;44.600;26.032;2023-08-06T00:30:54;99227.53;;;22.73;73.17
79123;BME280;68526;44.600;26.032;2023-08-06T00:31:10;99223.94;;;22.73;73.35
79123;BME280;68526;44.600;26.032;2023-08-06T00:31:25;99222.38;;;22.72;73.22
79123;BME280;68526;44.600;26.032;2023-08-06T00:31:42;99222.00;;;22.70;73.14
79123;BME280;68526;44.600;26.032;2023-08-06T00:31:58;99217.59;;;22.72;73.15
79123;BME280;68526;44.600;26.032;2023-08-06T00:32:14;99218.00;;;22.71;73.25
79123;BME280;68526;44.600;26.032;2023-08-06T00:32:30;99213.63;;;22.70;73.75
79123;BME280;68526;44.600;26.032;2023-08-06T00:32:45;99215.19;;;22.71;73.51
79123;BME280;68526;44.600;26.032;2023-08-06T00:33:01;99220.78;;;22.71;73.35
79123;BME280;68526;44.600;26.032;2023-08-06T00:33:17;99216.00;;;22.71;73.47
79123;BME280;68526;44.600;26.032;2023-08-06T00:33:33;99211.63;;;22.70;73.46
79123;BME280;68526;44.600;26.032;2023-08-06T00:33:49;99211.28;;;22.68;73.37
79123;BME280;68526;44.600;26.032;2023-08-06T00:34:05;99219.22;;;22.70;73.59
79123;BME280;68526;44.600;26.032;2023-08-06T00:34:21;99214.06;;;22.68;73.60
79123;BME280;68526;44.600;26.032;2023-08-06T00:34:37;99206.13;;;22.66;73.86
79123;BME280;68526;44.600;26.032;2023-08-06T00:34:52;99209.72;;;22.67;73.61
79123;BME280;68526;44.600;26.032;2023-08-06T00:35:09;99212.06;;;22.69;73.87
79123;BME280;68526;44.600;26.032;2023-08-06T00:35:25;99214.06;;;22.68;73.71
79123;BME280;68526;44.600;26.032;2023-08-06T00:35:41;99210.06;;;22.69;73.67
79123;BME280;68526;44.600;26.032;2023-08-06T00:35:57;99218.44;;;22.69;73.80
79123;BME280;68526;44.600;26.032;2023-08-06T00:36:14;99211.34;;;22.64;73.71
79123;BME280;68526;44.600;26.032;2023-08-06T00:36:30;99212.22;;;22.61;73.97
79123;BME280;68526;44.600;26.032;2023-08-06T00:36:46;99209.84;;;22.60;74.16
79123;BME280;68526;44.600;26.032;2023-08-06T00:37:02;99211.44;;;22.61;74.17
79123;BME280;68526;44.600;26.032;2023-08-06T00:37:18;99212.66;;;22.60;74.52
79123;BME280;68526;44.600;26.032;2023-08-06T00:37:34;99213.44;;;22.60;74.20
79123;BME280;68526;44.600;26.032;2023-08-06T00:37:51;99210.19;;;22.62;74.05
79123;BME280;68526;44.600;26.032;2023-08-06T00:38:06;99213.84;;;22.59;74.18
79123;BME280;68526;44.600;26.032;2023-08-06T00:38:22;99208.34;;;22.55;74.28
79123;BME280;68526;44.600;26.032;2023-08-06T00:38:38;99207.13;;;22.56;74.27
79123;BME280;68526;44.600;26.032;2023-08-06T00:38:54;99207.47;;;22.58;74.03
79123;BME280;68526;44.600;26.032;2023-08-06T00:39:11;99200.25;;;22.61;74.09
79123;BME280;68526;44.600;26.032;2023-08-06T00:39:27;99212.66;;;22.60;74.23
79123;BME280;68526;44.600;26.032;2023-08-06T00:39:43;99213.84;;;22.59;74.16
79123;BME280;68526;44.600;26.032;2023-08-06T00:39:59;99203.91;;;22.58;74.26
79123;BME280;68526;44.600;26.032;2023-08-06T00:40:15;99205.47;;;22.59;74.14
79123;BME280;68526;44.600;26.032;2023-08-06T00:40:31;99209.91;;;22.56;74.49
79123;BME280;68526;44.600;26.032;2023-08-06T00:40:47;99213.16;;;22.55;74.38
79123;BME280;68526;44.600;26.032;2023-08-06T00:41:03;99198.91;;;22.49;74.42
79123;BME280;68526;44.600;26.032;2023-08-06T00:41:18;99203.53;;;22.56;74.53
79123;BME280;68526;44.600;26.032;2023-08-06T00:41:35;99206.41;;;22.52;74.65
79123;BME280;68526;44.600;26.032;2023-08-06T00:41:51;99201.59;;;22.53;74.84
79123;BME280;68526;44.600;26.032;2023-08-06T00:42:07;99206.41;;;22.52;74.50
79123;BME280;68526;44.600;26.032;2023-08-06T00:42:23;99206.41;;;22.52;74.67
79123;BME280;68526;44.600;26.032;2023-08-06T00:42:39;99206.47;;;22.49;74.70
79123;BME280;68526;44.600;26.032;2023-08-06T00:42:54;99204.47;;;22.49;74.74
79123;BME280;68526;44.600;26.032;2023-08-06T00:43:11;99206.41;;;22.52;74.54
79123;BME280;68526;44.600;26.032;2023-08-06T00:43:27;99211.97;;;22.52;74.74
79123;BME280;68526;44.600;26.032;2023-08-06T00:43:43;99206.84;;;22.51;74.78
79123;BME280;68526;44.600;26.032;2023-08-06T00:43:59;99201.25;;;22.51;74.85
79123;BME280;68526;44.600;26.032;2023-08-06T00:44:15;99210.41;;;22.51;74.90
79123;BME280;68526;44.600;26.032;2023-08-06T00:44:30;99204.03;;;22.51;75.05
79123;BME280;68526;44.600;26.032;2023-08-06T00:44:46;99204.91;;;22.48;75.02
79123;BME280;68526;44.600;26.032;2023-08-06T00:45:04;99209.69;;;22.47;74.94
79123;BME280;68526;44.600;26.032;2023-08-06T00:45:20;99210.13;;;22.46;74.97
79123;BME280;68526;44.600;26.032;2023-08-06T00:45:37;99207.31;;;22.46;74.80
79123;BME280;68526;44.600;26.032;2023-08-06T00:45:53;99210.56;;;22.44;75.05
79123;BME280;68526;44.600;26.032;2023-08-06T00:46:09;99206.19;;;22.43;75.25
79123;BME280;68526;44.600;26.032;2023-08-06T00:46:25;99201.84;;;22.42;75.31
79123;BME280;68526;44.600;26.032;2023-08-06T00:46:42;99215.34;;;22.44;75.07
79123;BME280;68526;44.600;26.032;2023-08-06T00:46:57;99197.81;;;22.43;74.92
79123;BME280;68526;44.600;26.032;2023-08-06T00:47:15;99197.44;;;22.41;75.26
79123;BME280;68526;44.600;26.032;2023-08-06T00:47:31;99210.56;;;22.44;74.96
79123;BME280;68526;44.600;26.032;2023-08-06T00:47:47;99206.19;;;22.43;75.24
79123;BME280;68526;44.600;26.032;2023-08-06T00:48:04;99200.22;;;22.41;75.18
79123;BME280;68526;44.600;26.032;2023-08-06T00:48:21;99203.41;;;22.43;75.32
79123;BME280;68526;44.600;26.032;2023-08-06T00:48:37;99201.41;;;22.44;75.11
79123;BME280;68526;44.600;26.032;2023-08-06T00:48:54;99201.03;;;22.42;75.31
79123;BME280;68526;44.600;26.032;2023-08-06T00:49:11;99197.81;;;22.43;75.29
79123;BME280;68526;44.600;26.032;2023-08-06T00:49:27;99198.59;;;22.44;75.16
79123;BME280;68526;44.600;26.032;2023-08-06T00:49:43;99195.47;;;22.42;75.37
79123;BME280;68526;44.600;26.032;2023-08-06T00:49:59;99203.41;;;22.43;75.46
79123;BME280;68526;44.600;26.032;2023-08-06T00:50:15;99197.44;;;22.41;75.34
79123;BME280;68526;44.600;26.032;2023-08-06T00:50:31;99199.44;;;22.40;75.49
79123;BME280;68526;44.600;26.032;2023-08-06T00:50:47;99195.88;;;22.40;75.45
79123;BME280;68526;44.600;26.032;2023-08-06T00:51:04;99189.88;;;22.42;75.44
79123;BME280;68526;44.600;26.032;2023-08-06T00:51:22;99192.25;;;22.43;75.29
79123;BME280;68526;44.600;26.032;2023-08-06T00:51:38;99195.38;;;22.45;75.13
79123;BME280;68526;44.600;26.032;2023-08-06T00:51:53;99201.41;;;22.44;75.31
79123;BME280;68526;44.600;26.032;2023-08-06T00:52:10;99201.84;;;22.42;75.66
79123;BME280;68526;44.600;26.032;2023-08-06T00:52:26;99195.03;;;22.43;75.53
79123;BME280;68526;44.600;26.032;2023-08-06T00:52:42;99195.81;;;22.44;75.54
79123;BME280;68526;44.600;26.032;2023-08-06T00:52:58;99197.38;;;22.45;75.26
79123;BME280;68526;44.600;26.032;2023-08-06T00:53:16;99195.03;;;22.43;75.50
79123;BME280;68526;44.600;26.032;2023-08-06T00:53:31;99197.81;;;22.43;75.74
79123;BME280;68526;44.600;26.032;2023-08-06T00:53:48;99195.47;;;22.42;75.75
79123;BME280;68526;44.600;26.032;2023-08-06T00:54:04;99197.44;;;22.41;75.52
79123;BME280;68526;44.600;26.032;2023-08-06T00:54:20;99197.81;;;22.43;75.87
79123;BME280;68526;44.600;26.032;2023-08-06T00:54:36;99199.38;;;22.44;75.63
79123;BME280;68526;44.600;26.032;2023-08-06T00:54:52;99195.03;;;22.43;75.48
79123;BME280;68526;44.600;26.032;2023-08-06T00:55:10;99196.59;;;22.44;75.56
79123;BME280;68526;44.600;26.032;2023-08-06T00:55:26;99197.03;;;22.43;75.57
79123;BME280;68526;44.600;26.032;2023-08-06T00:55:43;99189.44;;;22.43;75.48
79123;BME280;68526;44.600;26.032;2023-08-06T00:56:00;99195.03;;;22.43;75.81
79123;BME280;68526;44.600;26.032;2023-08-06T00:56:16;99191.84;;;22.41;75.82
79123;BME280;68526;44.600;26.032;2023-08-06T00:56:33;99187.50;;;22.40;75.63
79123;BME280;68526;44.600;26.032;2023-08-06T00:56:51;99189.88;;;22.42;75.90
79123;BME280;68526;44.600;26.032;2023-08-06T00:57:07;99187.44;;;22.44;75.65
79123;BME280;68526;44.600;26.032;2023-08-06T00:57:25;99189.06;;;22.41;75.87
79123;BME280;68526;44.600;26.032;2023-08-06T00:57:41;99178.72;;;22.42;75.64
79123;BME280;68526;44.600;26.032;2023-08-06T00:57:57;99184.66;;;22.44;75.60
79123;BME280;68526;44.600;26.032;2023-08-06T00:58:14;99184.66;;;22.44;76.10
79123;BME280;68526;44.600;26.032;2023-08-06T00:58:31;99184.31;;;22.42;75.63
79123;BME280;68526;44.600;26.032;2023-08-06T00:58:48;99190.22;;;22.44;75.79
79123;BME280;68526;44.600;26.032;2023-08-06T00:59:04;99188.22;;;22.44;75.63
79123;BME280;68526;44.600;26.032;2023-08-06T00:59:22;99181.88;;;22.44;75.58
79123;BME280;68526;44.600;26.032;2023-08-06T00:59:38;99169.91;;;22.43;75.61
79123;BME280;68526;44.600;26.032;2023-08-06T00:59:54;99177.06;;;22.44;75.70
79123;BME280;68526;44.600;26.032;2023-08-06T01:00:11;99185.09;;;22.42;75.84
79123;BME280;68526;44.600;26.032;2023-08-06T01:00:27;99175.56;;;22.39;76.15
79123;BME280;68526;44.600;26.032;2023-08-06T01:00:43;99177.56;;;22.39;76.09
79123;BME280;68526;44.600;26.032;2023-08-06T01:01:01;99179.13;;;22.40;75.85
79123;BME280;68526;44.600;26.032;2023-08-06T01:01:16;99177.91;;;22.41;76.04
79123;BME280;68526;44.600;26.032;2023-08-06T01:01:32;99177.13;;;22.40;75.89
79123;BME280;68526;44.600;26.032;2023-08-06T01:01:48;99185.09;;;22.42;75.96
79123;BME280;68526;44.600;26.032;2023-08-06T01:02:06;99189.06;;;22.41;76.15
79123;BME280;68526;44.600;26.032;2023-08-06T01:02:22;99174.78;;;22.39;76.22
79123;BME280;68526;44.600;26.032;2023-08-06T01:02:38;99177.13;;;22.40;76.30
79123;BME280;68526;44.600;26.032;2023-08-06T01:02:54;99180.34;;;22.39;76.20
79123;BME280;68526;44.600;26.032;2023-08-06T01:03:10;99183.56;;;22.37;76.23
79123;BME280;68526;44.600;26.032;2023-08-06T01:03:26;99184.34;;;22.38;76.28
79123;BME280;68526;44.600;26.032;2023-08-06T01:03:41;99181.56;;;22.38;76.27
79123;BME280;68526;44.600;26.032;2023-08-06T01:03:57;99181.13;;;22.39;76.17
79123;BME280;68526;44.600;26.032;2023-08-06T01:04:13;99178.34;;;22.39;76.16
79123;BME280;68526;44.600;26.032;2023-08-06T01:04:30;99180.69;;;22.41;76.78
79123;BME280;68526;44.600;26.032;2023-08-06T01:04:49;99183.94;;;22.39;76.42
79123;BME280;68526;44.600;26.032;2023-08-06T01:05:05;99190.28;;;22.40;76.31
79123;BME280;68526;44.600;26.032;2023-08-06T01:05:21;99179.13;;;22.40;76.22
79123;BME280;68526;44.600;26.032;2023-08-06T01:05:38;99183.50;;;22.41;76.26
79123;BME280;68526;44.600;26.032;2023-08-06T01:05:54;99177.56;;;22.39;76.15
79123;BME280;68526;44.600;26.032;2023-08-06T01:06:11;99183.94;;;22.39;76.30
79123;BME280;68526;44.600;26.032;2023-08-06T01:06:45;99179.56;;;22.38;76.71
79123;BME280;68526;44.600;26.032;2023-08-06T01:07:11;99176.00;;;22.38;76.58
79123;BME280;68526;44.600;26.032;2023-08-06T01:07:40;99181.91;;;22.40;76.31
79123;BME280;68526;44.600;26.032;2023-08-06T01:08:09;99179.56;;;22.38;76.42
79123;BME280;68526;44.600;26.032;2023-08-06T01:08:34;99179.56;;;22.38;76.65
79123;BME280;68526;44.600;26.032;2023-08-06T01:08:56;99177.66;;;22.35;76.87
79123;BME280;68526;44.600;26.032;2023-08-06T01:09:27;99176.84;;;22.35;76.52
79123;BME280;68526;44.600;26.032;2023-08-06T01:09:53;99168.13;;;22.33;76.71
79123;BME280;68526;44.600;26.032;2023-08-06T01:10:24;99178.50;;;22.32;76.79
79123;BME280;68526;44.600;26.032;2023-08-06T01:11:00;99178.50;;;22.32;76.99
79123;BME280;68526;44.600;26.032;2023-08-06T01:11:26;99176.53;;;22.29;77.19
79123;BME280;68526;44.600;26.032;2023-08-06T01:11:54;99173.75;;;22.29;77.29
79123;BME280;68526;44.600;26.032;2023-08-06T01:12:20;99171.78;;;22.30;77.01
79123;BME280;68526;44.600;26.032;2023-08-06T01:12:47;99169.38;;;22.28;77.32
79123;BME280;68526;44.600;26.032;2023-08-06T01:13:11;99171.41;;;22.28;77.40
79123;BME280;68526;44.600;26.032;2023-08-06T01:13:32;99178.63;;;22.25;77.42
79123;BME280;68526;44.600;26.032;2023-08-06T01:13:54;99175.06;;;22.25;77.37
79123;BME280;68526;44.600;26.032;2023-08-06T01:14:18;99177.84;;;22.25;77.60
79123;BME280;68526;44.600;26.032;2023-08-06T01:14:47;99173.50;;;22.24;77.70
79123;BME280;68526;44.600;26.032;2023-08-06T01:15:11;99171.09;;;22.22;77.62
79123;BME280;68526;44.600;26.032;2023-08-06T01:15:35;99172.66;;;22.23;77.50
79123;BME280;68526;44.600;26.032;2023-08-06T01:15:55;99164.75;;;22.22;77.80
79123;BME280;68526;44.600;26.032;2023-08-06T01:16:14;99169.53;;;22.21;77.82
79123;BME280;68526;44.600;26.032;2023-08-06T01:16:32;99162.38;;;22.20;77.89
79123;BME280;68526;44.600;26.032;2023-08-06T01:16:50;99170.75;;;22.20;77.56
79123;BME280;68526;44.600;26.032;2023-08-06T01:17:07;99169.19;;;22.19;77.98
79123;BME280;68526;44.600;26.032;2023-08-06T01:17:23;99174.03;;;22.15;78.23
79123;BME280;68526;44.600;26.032;2023-08-06T01:17:42;99171.69;;;22.13;78.21
79123;BME280;68526;44.600;26.032;2023-08-06T01:17:58;99164.09;;;22.14;78.16
79123;BME280;68526;44.600;26.032;2023-08-06T01:18:15;99170.03;;;22.16;77.85
79123;BME280;68526;44.600;26.032;2023-08-06T01:18:32;99168.44;;;22.15;78.13
79123;BME280;68526;44.600;26.032;2023-08-06T01:18:48;99161.66;;;22.16;78.15
79123;BME280;68526;44.600;26.032;2023-08-06T01:19:04;99168.00;;;22.17;78.16
79123;BME280;68526;44.600;26.032;2023-08-06T01:19:21;99166.81;;;22.18;78.25
79123;BME280;68526;44.600;26.032;2023-08-06T01:19:37;99165.22;;;22.17;78.26
79123;BME280;68526;44.600;26.032;2023-08-06T01:19:53;99168.81;;;22.17;78.05
79123;BME280;68526;44.600;26.032;2023-08-06T01:20:09;99170.41;;;22.18;78.15
79123;BME280;68526;44.600;26.032;2023-08-06T01:20:29;99168.09;;;22.13;78.30
79123;BME280;68526;44.600;26.032;2023-08-06T01:20:45;99166.09;;;22.13;78.12
79123;BME280;68526;44.600;26.032;2023-08-06T01:21:01;99157.72;;;22.13;78.36
79123;BME280;68526;44.600;26.032;2023-08-06T01:21:18;99162.88;;;22.15;78.31
79123;BME280;68526;44.600;26.032;2023-08-06T01:21:34;99158.50;;;22.14;78.37
79123;BME280;68526;44.600;26.032;2023-08-06T01:21:50;99163.31;;;22.13;78.32
79123;BME280;68526;44.600;26.032;2023-08-06T01:22:05;99162.88;;;22.15;78.31
79123;BME280;68526;44.600;26.032;2023-08-06T01:22:21;99166.00;;;22.17;78.38
79123;BME280;68526;44.600;26.032;2023-08-06T01:22:38;99157.28;;;22.15;78.25
79123;BME280;68526;44.600;26.032;2023-08-06T01:22:54;99162.53;;;22.13;78.47
79123;BME280;68526;44.600;26.032;2023-08-06T01:23:10;99164.09;;;22.14;78.34
79123;BME280;68526;44.600;26.032;2023-08-06T01:23:25;99157.28;;;22.15;78.46
79123;BME280;68526;44.600;26.032;2023-08-06T01:23:42;99169.66;;;22.14;78.82
79123;BME280;68526;44.600;26.032;2023-08-06T01:23:58;99158.94;;;22.12;78.42
79123;BME280;68526;44.600;26.032;2023-08-06T01:24:14;99158.94;;;22.12;78.49
79123;BME280;68526;44.600;26.032;2023-08-06T01:24:30;99155.72;;;22.14;78.40
79123;BME280;68526;44.600;26.032;2023-08-06T01:24:48;99163.31;;;22.13;78.34
79123;BME280;68526;44.600;26.032;2023-08-06T01:25:07;99164.53;;;22.12;78.64
79123;BME280;68526;44.600;26.032;2023-08-06T01:25:29;99161.31;;;22.14;78.46
79123;BME280;68526;44.600;26.032;2023-08-06T01:25:56;99155.78;;;22.10;78.53
79123;BME280;68526;44.600;26.032;2023-08-06T01:26:18;99158.97;;;22.09;78.52
79123;BME280;68526;44.600;26.032;2023-08-06T01:26:40;99157.00;;;22.09;78.71
79123;BME280;68526;44.600;26.032;2023-08-06T01:27:03;99159.34;;;22.11;78.51
79123;BME280;68526;44.600;26.032;2023-08-06T01:27:26;99152.63;;;22.08;78.47
79123;BME280;68526;44.600;26.032;2023-08-06T01:27:45;99148.97;;;22.11;78.55
79123;BME280;68526;44.600;26.032;2023-08-06T01:28:06;99152.63;;;22.08;78.67
79123;BME280;68526;44.600;26.032;2023-08-06T01:28:33;99143.84;;;22.10;78.70
79123;BME280;68526;44.600;26.032;2023-08-06T01:28:59;99152.59;;;22.12;78.66
79123;BME280;68526;44.600;26.032;2023-08-06T01:29:23;99153.78;;;22.11;78.66
79123;BME280;68526;44.600;26.032;2023-08-06T01:29:44;99147.47;;;22.07;79.08
79123;BME280;68526;44.600;26.032;2023-08-06T01:30:06;99149.03;;;22.08;78.76